KFTG

Front Range Airport

Denver, Colorado, USA
METAR KFTG 230300Z AUTO 33011KT 10SM BKN110 17/10 A2996 RMK AO2 LTG DSNT N AND E T01680098
Observed Flight Rules
May-23 @ 03:00 UTC (11 minutes ago) Visual Flight Rules
Wind Visibility Clouds
330° at 11 knots 10 miles
  • Broken at 11,000' AGL
Temperatures Readings
Current 17°C / 63°F
Dewpoint 10°C / 50°F
Humidity 64%
Altimeter 29.96" Hg
Pressure 1015 hPa
Elevation 1675
METAR KFTG 230300Z AUTO 33011KT 10SM BKN110 17/10 A2996 RMK AO2 LTG DSNT N AND E T01680098
Observed Flight Rules
May-23 @ 03:00 UTC
(11 minutes ago)
VFR
Wind Visibility
330° at 11 knots 10 miles
Clouds
  • Broken at 11,000' AGL
Temperature Dewpoint
17°C / 63°F 10°C / 50°F
Humidity Altimeter Pressure
64% 29.96" Hg 1015 hPa